Terminal Aerodrome Forecast
Issued by NWS

Home | Current Version | Previous Version | Graphics & Text | Print | Product List | Glossary On
Versions: 1 2 3 4 5 6 7 8 9 10 11 12 13 14 15 16 17 18 19
000
FTUS43 KFGF 290500
TAFBJI
TAF
KBJI 290522Z 2906/3006 02010KT P6SM OVC015
      TEMPO 2906/2908 -RA BKN005
     FM290800 02010KT P6SM OVC006
     FM291400 03010KT P6SM OVC015
     FM291800 05008KT P6SM OVC040
     FM292100 09008KT P6SM SCT040=

USA.gov is the U.S. government's official web portal to all federal, state and local government web resources and services.